createdAt,value
2022-12-17T00:22:02.222Z,71.88
2022-12-17T00:24:47.812Z,71.71
2022-12-17T00:27:33.858Z,71.66
2022-12-17T00:30:21.003Z,71.43
2022-12-17T00:33:09.875Z,71.43
2022-12-17T00:35:55.571Z,71.27
2022-12-17T00:38:43.261Z,71.52
2022-12-17T00:41:29.324Z,71.74
2022-12-17T00:44:15.282Z,70.94
2022-12-17T00:47:02.703Z,70.89
2022-12-17T00:49:49.275Z,71.01
2022-12-17T00:52:35.847Z,71.18
2022-12-17T00:55:31.182Z,71.09
2022-12-17T01:38:08.355Z,70.64
2022-12-17T01:40:54.794Z,71.28
2022-12-17T01:43:52.151Z,70.74
2022-12-17T01:46:39.246Z,70.88
2022-12-17T01:49:27.855Z,71.44
2022-12-17T01:52:15.117Z,71.06
2022-12-17T01:55:04.504Z,70.94
2022-12-17T01:57:50.328Z,71.06
2022-12-17T02:00:37.262Z,70.71
2022-12-17T02:03:23.856Z,71.08
2022-12-17T02:06:21.312Z,71.13
2022-12-17T02:09:21.830Z,70.71
2022-12-17T02:12:14.812Z,71.64
2022-12-17T02:15:06.271Z,71.42
2022-12-17T02:17:59.083Z,71.08
2022-12-17T02:20:50.683Z,70.98
2022-12-17T02:23:48.413Z,71.06
2022-12-17T02:26:41.390Z,70.55
2022-12-17T02:29:25.614Z,70.91
2022-12-17T02:32:12.863Z,70.71
2022-12-17T02:35:03.600Z,70.94
2022-12-17T02:37:50.062Z,70.88
2022-12-17T02:40:37.538Z,71.18
2022-12-17T02:43:23.825Z,71.14
2022-12-17T02:46:11.429Z,71.25
2022-12-17T02:48:56.742Z,70.90
2022-12-17T02:51:43.425Z,70.63
2022-12-17T02:54:28.721Z,71.00
2022-12-17T02:57:13.837Z,70.58
2022-12-17T02:59:59.161Z,70.97
2022-12-17T03:02:54.368Z,70.35
2022-12-17T04:01:32.948Z,69.74
2022-12-17T05:14:06.323Z,69.54
2022-12-17T05:16:52.966Z,69.19
2022-12-17T05:19:38.128Z,68.84
2022-12-17T05:22:23.358Z,68.67
2022-12-17T05:25:08.458Z,68.93
2022-12-17T05:27:53.996Z,69.24
2022-12-17T05:30:39.333Z,68.81
2022-12-17T05:33:26.862Z,69.03
2022-12-17T05:36:12.327Z,69.00
2022-12-17T05:39:12.314Z,68.39
2022-12-17T05:42:02.724Z,68.72
2022-12-17T05:44:53.268Z,68.80
2022-12-17T05:47:38.834Z,69.00
2022-12-17T05:50:26.034Z,68.42
2022-12-17T05:53:11.412Z,69.17
2022-12-17T05:55:56.589Z,68.79
2022-12-17T05:58:41.739Z,68.83
2022-12-17T06:01:27.345Z,68.70
2022-12-17T06:04:12.925Z,69.42
2022-12-17T06:06:59.349Z,69.13
2022-12-17T06:09:45.088Z,68.37
2022-12-17T06:12:30.221Z,68.32
2022-12-17T06:15:15.365Z,68.41
2022-12-17T06:18:00.742Z,68.24
2022-12-17T06:20:54.230Z,68.54
2022-12-17T06:23:40.912Z,68.77
2022-12-17T06:26:26.176Z,68.86
2022-12-17T06:29:11.400Z,69.25
2022-12-17T06:31:56.641Z,69.31
2022-12-17T06:34:42.549Z,69.33
2022-12-17T06:37:27.718Z,69.28
2022-12-17T06:40:14.291Z,69.29
2022-12-17T06:42:59.342Z,69.62
2022-12-17T06:45:44.579Z,69.10
2022-12-17T06:48:29.763Z,68.99
2022-12-17T06:51:15.468Z,69.33
2022-12-17T06:54:01.299Z,68.97
2022-12-17T06:56:47.893Z,68.69
2022-12-17T06:59:33.005Z,68.62
2022-12-17T07:02:18.365Z,68.57
2022-12-17T07:05:03.813Z,69.28
2022-12-17T07:07:49.069Z,68.95
2022-12-17T07:10:34.589Z,69.10
2022-12-17T07:13:24.927Z,68.90
2022-12-17T07:16:10.208Z,68.77
2022-12-17T07:18:56.165Z,68.57
2022-12-17T07:21:41.293Z,68.88
2022-12-17T07:24:26.620Z,68.59
2022-12-17T07:27:11.908Z,69.07
2022-12-17T07:29:58.420Z,68.83
2022-12-17T07:32:43.790Z,69.16
2022-12-17T07:35:29.068Z,69.04
2022-12-17T07:38:17.854Z,68.69
2022-12-17T07:41:03.364Z,69.33
2022-12-17T07:43:52.982Z,69.06
2022-12-17T07:46:40.278Z,69.03
2022-12-17T07:49:26.151Z,69.28
2022-12-17T07:52:12.138Z,68.80
2022-12-17T07:54:57.473Z,68.71
2022-12-17T07:57:43.796Z,69.42
2022-12-17T08:00:30.800Z,69.56
2022-12-17T08:03:18.338Z,68.88
2022-12-17T08:06:15.511Z,69.20
2022-12-17T08:09:12.489Z,69.41
2022-12-17T08:11:58.173Z,69.14
2022-12-17T08:14:43.473Z,69.35
2022-12-17T08:17:28.688Z,68.46
2022-12-17T08:20:15.341Z,68.86
2022-12-17T08:23:00.477Z,68.71
2022-12-17T08:25:45.648Z,68.50
2022-12-17T08:31:36.605Z,68.54
2022-12-17T08:34:21.840Z,68.32
2022-12-17T08:37:08.385Z,68.25
2022-12-17T08:39:53.493Z,68.21
2022-12-17T08:42:38.574Z,68.04
2022-12-17T08:45:24.651Z,68.09
2022-12-17T08:48:10.232Z,67.56
2022-12-17T08:50:55.652Z,67.86
2022-12-17T08:53:42.601Z,67.52
2022-12-17T08:56:27.982Z,67.36
2022-12-17T08:59:13.185Z,67.22
2022-12-17T09:01:57.622Z,66.23
2022-12-17T09:04:42.972Z,66.38
2022-12-17T09:07:28.180Z,66.01
2022-12-17T09:10:14.694Z,65.29
2022-12-17T09:13:04.363Z,65.35
2022-12-17T09:15:51.721Z,65.18
2022-12-17T09:18:37.881Z,64.76
2022-12-17T09:21:24.221Z,64.62
2022-12-17T09:24:09.448Z,63.78
2022-12-17T09:26:56.417Z,64.09
2022-12-17T09:29:41.819Z,63.83
2022-12-17T09:32:27.237Z,63.38
2022-12-17T09:35:12.483Z,62.72
2022-12-17T09:38:09.097Z,61.32
2022-12-17T09:40:54.460Z,61.53
2022-12-17T09:43:49.865Z,61.38
2022-12-17T09:46:41.202Z,61.44
2022-12-17T09:49:35.089Z,61.38
2022-12-17T09:52:22.760Z,60.91
2022-12-17T09:55:10.493Z,60.47
2022-12-17T09:58:10.805Z,60.37
2022-12-17T10:01:09.073Z,59.87
2022-12-17T10:03:56.192Z,60.42
2022-12-17T10:06:45.716Z,60.66
2022-12-17T10:09:35.548Z,59.95
2022-12-17T10:12:31.008Z,59.63
2022-12-17T10:15:16.213Z,58.50
2022-12-17T10:18:03.196Z,58.29
2022-12-17T10:20:54.984Z,57.95
2022-12-17T10:23:45.222Z,57.98
2022-12-17T10:26:43.721Z,57.99
2022-12-17T10:29:47.413Z,58.08
2022-12-17T10:32:38.810Z,58.25
2022-12-17T10:35:32.180Z,58.85
2022-12-17T10:38:18.921Z,58.75
2022-12-17T10:41:04.079Z,57.14
2022-12-17T10:43:51.678Z,56.05
2022-12-17T10:46:44.966Z,53.87
2022-12-17T10:49:33.250Z,54.52
2022-12-17T10:52:23.053Z,52.12
2022-12-17T10:55:17.603Z,49.45
2022-12-17T10:58:03.842Z,47.40
2022-12-17T11:00:51.966Z,46.14
2022-12-17T11:03:51.020Z,45.14
2022-12-17T11:06:43.392Z,45.34
2022-12-17T11:09:45.134Z,45.72
2022-12-17T11:12:32.271Z,48.19
2022-12-17T11:15:26.046Z,48.99
2022-12-17T11:18:12.046Z,49.09
2022-12-17T11:21:08.949Z,49.64
2022-12-17T11:23:58.738Z,49.40
2022-12-17T11:26:49.222Z,47.23
2022-12-17T11:29:34.412Z,45.93
2022-12-17T11:32:51.295Z,47.39
2022-12-17T11:35:42.186Z,47.25
2022-12-17T11:38:36.189Z,47.71
2022-12-17T11:41:32.240Z,48.28
2022-12-17T11:44:26.663Z,49.21
2022-12-17T11:47:23.036Z,50.25
2022-12-17T11:50:17.736Z,50.13
2022-12-17T11:53:08.175Z,49.41
2022-12-17T11:56:00.838Z,48.30
2022-12-17T11:58:52.979Z,49.02
2022-12-17T12:01:49.760Z,49.20
2022-12-17T12:04:49.106Z,48.34
2022-12-17T12:07:43.760Z,48.15
2022-12-17T12:10:35.235Z,46.78
2022-12-17T12:13:33.617Z,44.51
2022-12-17T12:16:25.623Z,44.36
2022-12-17T12:19:24.573Z,44.77
2022-12-17T12:22:17.530Z,44.78
2022-12-17T12:25:33.614Z,45.71
2022-12-17T12:28:28.610Z,47.38
2022-12-17T12:31:21.974Z,48.39
2022-12-17T12:34:12.738Z,49.57
2022-12-17T12:37:01.015Z,50.51
2022-12-17T12:39:52.259Z,51.35
2022-12-17T12:42:44.805Z,51.41
2022-12-17T12:45:47.887Z,51.11
2022-12-17T12:48:44.006Z,51.77
2022-12-17T12:51:34.614Z,50.83
2022-12-17T12:54:40.289Z,51.48
2022-12-17T12:57:47.836Z,51.61
2022-12-17T13:00:49.859Z,51.01
2022-12-17T13:03:47.813Z,50.19
2022-12-17T13:06:41.580Z,49.95
2022-12-17T13:09:22.396Z,51.59
2022-12-17T13:11:54.613Z,52.52
2022-12-17T13:14:25.260Z,52.53
2022-12-17T13:16:55.899Z,52.42
2022-12-17T13:19:36.819Z,52.77
2022-12-17T13:22:27.719Z,53.49
2022-12-17T13:24:58.017Z,54.45
2022-12-17T13:27:31.044Z,55.41
2022-12-17T13:30:00.338Z,56.03
2022-12-17T13:32:33.202Z,56.08
2022-12-17T13:35:12.292Z,56.31
2022-12-17T13:37:53.496Z,56.90
2022-12-17T13:40:35.341Z,56.89
2022-12-17T13:43:03.913Z,56.69
2022-12-17T13:45:39.014Z,57.46
2022-12-17T13:48:07.221Z,57.38
2022-12-17T13:50:36.198Z,57.38
2022-12-17T13:53:13.015Z,57.76
2022-12-17T13:55:41.565Z,58.08
2022-12-17T13:58:22.352Z,58.46
2022-12-17T14:00:50.184Z,58.45
2022-12-17T14:03:37.141Z,58.93
2022-12-17T14:06:12.532Z,59.19
2022-12-17T14:08:42.756Z,59.05
2022-12-17T14:11:32.962Z,59.11
2022-12-17T14:14:02.447Z,59.55
2022-12-17T14:16:30.693Z,59.23
2022-12-17T14:19:00.140Z,59.55
2022-12-17T14:21:29.604Z,60.15
2022-12-17T14:23:59.073Z,60.08
2022-12-17T14:26:26.810Z,60.42
2022-12-17T14:28:56.152Z,59.97
2022-12-17T14:31:28.816Z,60.48
2022-12-17T14:34:07.385Z,60.44
2022-12-17T14:36:37.309Z,60.93
2022-12-17T14:39:16.290Z,60.63
2022-12-17T14:42:01.674Z,60.82
2022-12-17T14:44:31.101Z,61.22
2022-12-17T14:47:10.194Z,61.33
2022-12-17T14:49:41.163Z,61.62
2022-12-17T14:52:14.465Z,61.39
2022-12-17T14:54:47.406Z,61.30
2022-12-17T14:57:24.390Z,61.48
2022-12-17T14:59:52.948Z,61.46
2022-12-17T15:02:26.198Z,61.63
2022-12-17T15:04:58.090Z,61.68
2022-12-17T15:07:28.302Z,61.78
2022-12-17T15:09:57.821Z,62.25
2022-12-17T15:12:26.499Z,62.02
2022-12-17T15:14:54.170Z,62.20
2022-12-17T15:17:21.992Z,62.91
2022-12-17T15:19:55.803Z,63.15
2022-12-17T15:22:24.245Z,62.70
2022-12-17T15:24:52.315Z,63.42
2022-12-17T15:27:21.378Z,63.42
2022-12-17T15:29:49.137Z,63.91
2022-12-17T15:32:19.829Z,63.49
2022-12-17T15:34:47.910Z,63.43
2022-12-17T15:37:19.827Z,63.56
2022-12-17T15:39:51.020Z,64.04
2022-12-17T15:42:36.760Z,64.20
2022-12-17T15:45:08.381Z,63.84
2022-12-17T15:47:36.127Z,64.32
2022-12-17T15:50:03.947Z,64.42
2022-12-17T15:52:32.642Z,64.77
2022-12-17T15:55:00.529Z,64.66
2022-12-17T15:57:28.276Z,64.82
2022-12-17T15:59:56.009Z,65.03
2022-12-17T16:02:25.503Z,65.39
2022-12-17T16:04:53.308Z,66.00
2022-12-17T16:07:21.117Z,66.10
2022-12-17T16:09:48.852Z,66.49
2022-12-17T16:12:16.575Z,65.99
2022-12-17T16:14:44.704Z,66.21
2022-12-17T16:17:12.543Z,66.33
2022-12-17T16:19:41.598Z,66.74
2022-12-17T16:22:09.508Z,66.73
2022-12-17T16:24:37.223Z,66.75
2022-12-17T16:27:05.300Z,66.75
2022-12-17T16:29:33.046Z,66.77
2022-12-17T16:32:01.390Z,66.79
2022-12-17T16:34:29.089Z,67.44
2022-12-17T16:36:58.777Z,67.13
2022-12-17T16:39:26.583Z,67.38
2022-12-17T16:41:54.441Z,67.78
2022-12-17T16:44:22.985Z,68.14
2022-12-17T16:46:52.333Z,67.99
2022-12-17T16:49:22.364Z,67.68
2022-12-17T16:51:51.714Z,67.79
2022-12-17T16:54:22.628Z,68.15
2022-12-17T16:56:50.869Z,68.38
2022-12-17T16:59:19.003Z,68.23
2022-12-17T17:01:50.125Z,68.38
2022-12-17T17:04:19.710Z,68.13
2022-12-17T17:06:49.739Z,68.33
2022-12-17T17:09:18.106Z,67.74
2022-12-17T17:11:51.397Z,67.76
2022-12-17T17:14:19.642Z,67.82
2022-12-17T17:16:47.443Z,68.11
2022-12-17T17:19:15.197Z,67.88
2022-12-17T17:21:48.605Z,68.47
2022-12-17T17:24:21.592Z,68.51
2022-12-17T17:26:52.900Z,68.37
2022-12-17T17:29:20.896Z,68.29
2022-12-17T17:34:36.712Z,68.87
2022-12-17T17:37:04.948Z,68.83
2022-12-17T17:39:34.049Z,69.30
2022-12-17T17:42:03.343Z,68.90
2022-12-17T17:44:31.198Z,68.72
2022-12-17T17:46:59.025Z,68.41
2022-12-17T17:49:27.088Z,68.74
2022-12-17T17:52:12.025Z,68.77
2022-12-17T17:54:40.727Z,68.68
2022-12-17T17:57:10.718Z,69.01
2022-12-17T17:59:39.357Z,68.75
2022-12-17T18:02:08.799Z,68.66
2022-12-17T18:04:37.037Z,68.52
2022-12-17T18:09:53.067Z,69.03
2022-12-17T18:12:41.455Z,68.69
2022-12-17T18:15:14.901Z,68.62
2022-12-17T18:17:44.784Z,68.94
2022-12-17T18:20:12.901Z,68.55
2022-12-17T18:22:41.141Z,68.83
2022-12-17T18:25:09.210Z,68.74
2022-12-17T18:27:38.366Z,69.04
2022-12-17T18:30:07.067Z,69.06
2022-12-17T18:32:34.846Z,68.46
2022-12-17T18:35:02.609Z,68.42
2022-12-17T18:37:31.069Z,68.88
2022-12-17T18:39:58.982Z,68.70
2022-12-17T18:42:44.309Z,68.55
2022-12-17T18:45:13.436Z,68.69
2022-12-17T18:47:42.417Z,68.10
2022-12-17T18:50:11.071Z,68.39
2022-12-17T18:52:39.406Z,68.53
2022-12-17T18:55:11.101Z,68.14
2022-12-17T18:57:38.876Z,67.99
2022-12-17T19:00:08.218Z,68.16
2022-12-17T19:02:37.537Z,68.56
2022-12-17T19:05:05.761Z,68.68
2022-12-17T19:07:33.407Z,68.02
2022-12-17T19:10:01.201Z,68.05
2022-12-17T19:12:29.097Z,67.90
2022-12-17T19:14:56.855Z,68.25
2022-12-17T19:17:26.302Z,68.44
2022-12-17T19:19:55.339Z,68.53
2022-12-17T19:22:23.046Z,68.19
2022-12-17T19:24:50.869Z,68.51
2022-12-17T19:27:18.601Z,68.51
2022-12-17T19:29:49.381Z,68.61
2022-12-17T19:32:17.551Z,68.92
2022-12-17T19:34:45.327Z,68.88
2022-12-17T19:37:14.779Z,68.80
2022-12-17T19:39:42.563Z,68.78
2022-12-17T19:42:24.272Z,68.60
2022-12-17T19:44:52.508Z,69.12
2022-12-17T19:47:20.595Z,68.41
2022-12-17T19:49:48.494Z,68.57
2022-12-17T19:52:17.559Z,68.72
2022-12-17T19:54:45.426Z,68.59
2022-12-17T19:57:13.113Z,68.49
2022-12-17T19:59:40.823Z,68.76
2022-12-17T20:02:10.916Z,69.14
2022-12-17T20:04:38.995Z,69.02
2022-12-17T20:07:06.794Z,69.20
2022-12-17T20:09:35.953Z,69.11
2022-12-17T20:12:04.230Z,69.47
2022-12-17T20:14:34.203Z,69.57
2022-12-17T20:17:02.490Z,69.56
2022-12-17T20:19:32.255Z,69.78
2022-12-17T20:22:01.109Z,69.53
2022-12-17T20:24:31.799Z,69.86
2022-12-17T20:27:02.002Z,69.98
2022-12-17T20:29:30.226Z,69.75
2022-12-17T20:31:58.375Z,70.21
2022-12-17T20:34:26.416Z,69.92
2022-12-17T20:36:54.728Z,70.11
2022-12-17T20:39:27.098Z,70.42
2022-12-17T20:41:55.984Z,70.19
2022-12-17T20:44:25.174Z,70.22
2022-12-17T20:46:53.079Z,70.06
2022-12-17T20:49:20.950Z,69.96
2022-12-17T20:51:48.921Z,69.65
2022-12-17T20:54:16.729Z,69.91
2022-12-17T20:56:44.625Z,70.09
2022-12-17T20:59:15.935Z,69.72
2022-12-17T21:01:46.748Z,70.22
2022-12-17T21:04:20.196Z,69.56
2022-12-17T21:06:51.627Z,69.24
2022-12-17T21:09:20.828Z,69.71
2022-12-17T21:11:49.130Z,69.05
2022-12-17T21:14:19.984Z,69.32
2022-12-17T21:16:49.725Z,69.28
2022-12-17T21:19:20.093Z,69.16
2022-12-17T21:21:48.712Z,68.83
2022-12-17T21:24:16.790Z,69.19
2022-12-17T21:26:45.751Z,69.13
2022-12-17T21:29:14.341Z,68.91
2022-12-17T21:31:44.691Z,68.99
2022-12-17T21:34:16.110Z,68.89
2022-12-17T21:36:44.512Z,68.45
2022-12-17T21:39:13.980Z,68.51
2022-12-17T21:41:44.520Z,68.34
2022-12-17T21:44:14.146Z,68.42
2022-12-17T21:46:47.988Z,68.42
2022-12-17T21:49:19.267Z,68.94
2022-12-17T21:51:47.281Z,68.63
2022-12-17T21:54:19.271Z,68.31
2022-12-17T21:56:48.814Z,68.43
2022-12-17T21:59:17.262Z,68.42
2022-12-17T22:01:45.301Z,67.92
2022-12-17T22:04:13.246Z,68.11
2022-12-17T22:06:48.361Z,68.81
2022-12-17T22:09:33.124Z,68.33
2022-12-17T22:12:27.139Z,70.11
2022-12-17T22:14:54.915Z,69.01
2022-12-17T22:17:23.124Z,69.06
2022-12-17T22:19:51.205Z,69.18
2022-12-17T22:22:20.310Z,69.12
2022-12-17T22:24:48.151Z,68.52
2022-12-17T22:27:20.500Z,68.96
2022-12-17T22:30:06.112Z,68.86
2022-12-17T22:32:47.886Z,68.35
2022-12-17T22:36:09.246Z,68.90
2022-12-17T22:41:29.022Z,68.78
2022-12-17T22:44:42.209Z,68.40
2022-12-17T22:44:49.373Z,68.70
2022-12-17T22:46:30.782Z,68.73
2022-12-17T22:48:59.683Z,68.79
2022-12-17T22:51:32.848Z,68.73
2022-12-17T22:54:05.501Z,68.55
2022-12-17T22:57:34.648Z,69.03
2022-12-17T22:59:22.775Z,68.36
2022-12-17T23:01:50.645Z,68.27
2022-12-17T23:04:18.519Z,68.29
2022-12-17T23:06:46.801Z,68.66
2022-12-17T23:09:18.944Z,68.80
2022-12-17T23:11:47.300Z,69.59
2022-12-17T23:14:15.293Z,69.19
2022-12-17T23:16:43.000Z,69.06
2022-12-17T23:19:11.678Z,68.99
2022-12-17T23:21:39.477Z,69.51
2022-12-17T23:24:08.015Z,69.49
2022-12-17T23:26:38.001Z,69.66
2022-12-17T23:29:08.380Z,69.03
2022-12-17T23:31:40.045Z,69.34
2022-12-17T23:34:08.673Z,69.29
2022-12-17T23:36:37.017Z,69.08
2022-12-17T23:39:05.646Z,68.91
2022-12-17T23:41:33.876Z,69.41
2022-12-17T23:44:02.981Z,68.88
2022-12-17T23:46:31.549Z,69.13
2022-12-17T23:48:59.531Z,69.25
2022-12-17T23:51:28.066Z,69.57
2022-12-17T23:53:56.094Z,69.23
2022-12-17T23:56:26.465Z,69.76
2022-12-17T23:58:56.514Z,69.47
